createdAt,value
2023-01-28T00:00:24.971Z,17.15
2023-01-28T00:00:57.878Z,15.98
2023-01-28T00:01:30.000Z,16.38
2023-01-28T00:02:01.906Z,16.42
2023-01-28T00:02:35.579Z,15.25
2023-01-28T00:03:07.383Z,16.88
2023-01-28T00:03:40.283Z,17.48
2023-01-28T00:04:13.145Z,16.35
2023-01-28T00:04:45.146Z,17.25
2023-01-28T00:05:17.169Z,16.95
2023-01-28T00:05:50.020Z,16.58
2023-01-28T00:06:21.843Z,17.77
2023-01-28T00:06:53.669Z,17.08
2023-01-28T00:07:26.425Z,18.63
2023-01-28T00:07:58.578Z,16.48
2023-01-28T00:08:30.620Z,16.75
2023-01-28T00:09:03.393Z,18.48
2023-01-28T00:09:35.227Z,16.38
2023-01-28T00:10:08.079Z,16.00
2023-01-28T00:10:41.010Z,17.65
2023-01-28T00:11:14.438Z,17.52
2023-01-28T00:11:46.326Z,17.17
2023-01-28T00:12:19.220Z,17.38
2023-01-28T00:12:51.067Z,16.73
2023-01-28T00:13:23.207Z,19.20
2023-01-28T00:13:56.222Z,18.83
2023-01-28T00:14:28.095Z,18.15
2023-01-28T00:14:59.931Z,17.88
2023-01-28T00:15:32.660Z,18.42
2023-01-28T00:16:07.359Z,17.65
2023-01-28T00:16:39.297Z,18.17
2023-01-28T00:17:12.083Z,18.02
2023-01-28T00:17:43.923Z,16.95
2023-01-28T00:18:17.111Z,15.38
2023-01-28T00:18:48.972Z,17.27
2023-01-28T00:19:20.754Z,16.13
2023-01-28T00:19:53.631Z,17.23
2023-01-28T00:20:25.410Z,17.98
2023-01-28T00:20:58.758Z,16.83
2023-01-28T00:21:31.687Z,16.80
2023-01-28T00:22:04.322Z,16.27
2023-01-28T00:22:36.169Z,16.10
2023-01-28T00:23:08.999Z,15.68
2023-01-28T00:23:42.940Z,15.85
2023-01-28T00:24:15.359Z,17.42
2023-01-28T00:24:48.116Z,16.05
2023-01-28T00:25:19.883Z,15.38
2023-01-28T00:25:51.731Z,15.40
2023-01-28T00:26:26.173Z,16.17
2023-01-28T00:26:58.059Z,15.77
2023-01-28T00:27:30.946Z,15.30
2023-01-28T00:28:02.801Z,15.15
2023-01-28T00:28:35.443Z,16.73
2023-01-28T00:29:07.329Z,16.67
2023-01-28T00:29:40.061Z,16.48
2023-01-28T00:30:12.813Z,16.60
2023-01-28T00:30:44.647Z,16.27
2023-01-28T00:31:18.743Z,15.00
2023-01-28T00:31:50.698Z,15.35
2023-01-28T00:32:22.562Z,16.85
2023-01-28T00:32:55.501Z,15.27
2023-01-28T00:33:29.912Z,16.45
2023-01-28T00:34:01.955Z,14.75
2023-01-28T00:34:33.791Z,17.33
2023-01-28T00:35:07.918Z,16.10
2023-01-28T00:35:39.721Z,17.85
2023-01-28T00:36:12.888Z,18.02
2023-01-28T00:36:45.813Z,16.92
2023-01-28T00:37:17.935Z,16.63
2023-01-28T00:37:49.807Z,17.35
2023-01-28T00:38:22.580Z,16.25
2023-01-28T00:38:55.692Z,16.85
2023-01-28T00:39:27.918Z,16.80
2023-01-28T00:40:00.715Z,22.40
2023-01-28T00:40:32.559Z,30.25
2023-01-28T00:41:08.961Z,28.35
2023-01-28T00:41:43.148Z,25.15
2023-01-28T00:42:14.987Z,24.95
2023-01-28T00:42:46.853Z,24.85
2023-01-28T00:43:18.723Z,25.90
2023-01-28T00:43:52.158Z,25.10
2023-01-28T00:44:24.053Z,24.27
2023-01-28T00:44:55.842Z,23.98
2023-01-28T00:45:28.717Z,29.52
2023-01-28T00:46:00.520Z,35.35
2023-01-28T00:46:32.401Z,25.42
2023-01-28T00:47:05.218Z,21.75
2023-01-28T00:47:37.038Z,20.40
2023-01-28T00:48:09.019Z,20.70
2023-01-28T00:48:43.127Z,17.75
2023-01-28T00:49:15.069Z,18.70
2023-01-28T00:49:46.874Z,17.17
2023-01-28T00:50:21.293Z,16.00
2023-01-28T00:50:53.140Z,15.02
2023-01-28T00:51:24.953Z,15.80
2023-01-28T00:51:57.757Z,18.42
2023-01-28T00:52:29.892Z,16.00
2023-01-28T00:53:02.780Z,14.82
2023-01-28T00:53:36.790Z,18.60
2023-01-28T00:54:10.317Z,15.25
2023-01-28T00:54:42.102Z,15.05
2023-01-28T00:55:14.406Z,15.40
2023-01-28T00:55:47.365Z,16.95
2023-01-28T00:56:19.454Z,15.65
2023-01-28T00:56:53.456Z,17.65
2023-01-28T00:57:26.237Z,17.10
2023-01-28T00:57:58.045Z,15.48
2023-01-28T00:58:29.930Z,17.10
2023-01-28T00:59:02.736Z,16.52
2023-01-28T00:59:34.571Z,15.95
2023-01-28T01:00:08.808Z,16.48
2023-01-28T01:00:41.634Z,17.98
2023-01-28T01:01:16.219Z,17.13
2023-01-28T01:01:48.100Z,15.90
2023-01-28T01:02:20.982Z,16.08
2023-01-28T01:02:53.104Z,17.60
2023-01-28T01:03:24.895Z,15.85
2023-01-28T01:04:02.740Z,16.70
2023-01-28T01:04:35.291Z,18.00
2023-01-28T01:05:08.531Z,14.57
2023-01-28T01:05:41.301Z,15.30
2023-01-28T01:06:14.393Z,16.13
2023-01-28T01:06:46.234Z,16.70
2023-01-28T01:07:19.074Z,17.52
2023-01-28T01:07:51.064Z,16.13
2023-01-28T01:08:35.531Z,16.27
2023-01-28T01:09:10.092Z,16.50
2023-01-28T01:09:42.051Z,16.02
2023-01-28T01:10:16.472Z,16.13
2023-01-28T01:10:49.245Z,17.13
2023-01-28T01:11:21.179Z,17.30
2023-01-28T01:11:54.318Z,16.38
2023-01-28T01:12:27.118Z,15.88
2023-01-28T01:12:59.039Z,17.98
2023-01-28T01:13:32.573Z,17.02
2023-01-28T01:14:06.914Z,16.17
2023-01-28T01:14:39.199Z,16.30
2023-01-28T01:15:11.892Z,16.63
2023-01-28T01:15:43.886Z,15.40
2023-01-28T01:16:17.627Z,16.35
2023-01-28T01:16:49.481Z,15.73
2023-01-28T01:17:21.657Z,15.35
2023-01-28T01:17:54.462Z,17.00
2023-01-28T01:18:26.286Z,16.75
2023-01-28T01:18:59.168Z,17.48
2023-01-28T01:19:32.327Z,16.08
2023-01-28T01:20:05.157Z,17.00
2023-01-28T01:20:41.249Z,17.02
2023-01-28T01:21:16.182Z,15.90
2023-01-28T01:21:50.625Z,16.50
2023-01-28T01:22:23.270Z,15.48
2023-01-28T01:22:56.209Z,16.77
2023-01-28T01:23:29.883Z,17.42
2023-01-28T01:24:01.739Z,16.40
2023-01-28T01:24:33.981Z,15.70
2023-01-28T01:25:08.367Z,16.67
2023-01-28T01:25:40.383Z,18.45
2023-01-28T01:26:13.481Z,15.80
2023-01-28T01:26:46.278Z,16.58
2023-01-28T01:27:19.469Z,17.23
2023-01-28T01:27:51.308Z,15.90
2023-01-28T01:28:23.491Z,16.70
2023-01-28T01:28:56.517Z,16.95
2023-01-28T01:29:28.798Z,15.70
2023-01-28T01:30:00.806Z,15.88
2023-01-28T01:30:33.606Z,18.05
2023-01-28T01:31:08.562Z,17.80
2023-01-28T01:31:40.445Z,16.15
2023-01-28T01:32:13.337Z,16.95
2023-01-28T01:32:45.505Z,16.50
2023-01-28T01:33:17.415Z,16.20
2023-01-28T01:33:50.468Z,17.52
2023-01-28T01:34:23.290Z,16.42
2023-01-28T01:34:55.093Z,16.25
2023-01-28T01:35:27.059Z,17.95
2023-01-28T01:36:00.451Z,16.33
2023-01-28T01:36:32.468Z,16.75
2023-01-28T01:37:06.267Z,17.10
2023-01-28T01:37:39.149Z,16.95
2023-01-28T01:38:11.269Z,16.55
2023-01-28T01:38:43.426Z,16.83
2023-01-28T01:39:16.343Z,16.58
2023-01-28T01:39:48.927Z,16.80
2023-01-28T01:40:20.783Z,16.55
2023-01-28T01:40:53.609Z,18.15
2023-01-28T01:41:28.748Z,16.65
2023-01-28T01:42:01.669Z,16.55
2023-01-28T01:42:36.074Z,15.52
2023-01-28T01:43:16.787Z,16.70
2023-01-28T01:43:51.353Z,15.20
2023-01-28T01:44:58.614Z,18.13
2023-01-28T01:45:34.623Z,15.30
2023-01-28T01:46:06.602Z,15.25
2023-01-28T01:46:43.425Z,16.73
2023-01-28T01:47:17.955Z,16.65
2023-01-28T01:47:57.445Z,16.63
2023-01-28T01:48:34.389Z,17.75
2023-01-28T01:49:22.935Z,16.02
2023-01-28T01:49:56.694Z,16.83
2023-01-28T01:50:33.778Z,15.43
2023-01-28T01:51:09.824Z,15.88
2023-01-28T01:51:44.073Z,15.27
2023-01-28T01:52:21.059Z,17.95
2023-01-28T01:52:56.431Z,17.98
2023-01-28T01:53:30.534Z,16.98
2023-01-28T01:54:04.303Z,18.05
2023-01-28T01:54:38.327Z,17.20
2023-01-28T01:55:15.932Z,17.70
2023-01-28T01:55:49.958Z,15.40
2023-01-28T01:56:25.834Z,15.73
2023-01-28T01:57:00.209Z,15.75
2023-01-28T01:57:35.797Z,14.98
2023-01-28T01:58:12.745Z,16.23
2023-01-28T01:58:50.249Z,16.23
2023-01-28T01:59:25.665Z,16.00
2023-01-28T02:00:06.189Z,17.00
2023-01-28T02:00:39.571Z,17.23
2023-01-28T02:01:12.540Z,15.93
2023-01-28T02:01:45.767Z,16.90
2023-01-28T02:02:19.002Z,17.65
2023-01-28T02:02:52.353Z,15.88
2023-01-28T02:03:29.625Z,16.92
2023-01-28T02:04:06.543Z,16.27
2023-01-28T02:04:40.592Z,16.85
2023-01-28T02:05:16.866Z,16.58
2023-01-28T02:05:51.082Z,17.13
2023-01-28T02:06:23.932Z,16.88
2023-01-28T02:06:56.861Z,17.10
2023-01-28T02:07:30.086Z,16.95
2023-01-28T02:08:17.031Z,17.65
2023-01-28T02:08:48.857Z,15.88
2023-01-28T02:09:25.001Z,15.68
2023-01-28T02:09:56.814Z,16.58
2023-01-28T02:10:28.890Z,16.10
2023-01-28T02:11:05.231Z,16.00
2023-01-28T02:11:37.185Z,15.90
2023-01-28T02:12:12.199Z,15.88
2023-01-28T02:12:49.564Z,17.48
2023-01-28T02:13:25.718Z,15.82
2023-01-28T02:14:01.707Z,16.88
2023-01-28T02:14:39.376Z,17.75
2023-01-28T02:15:14.561Z,15.63
2023-01-28T02:15:47.542Z,17.38
2023-01-28T02:16:20.623Z,16.17
2023-01-28T02:16:52.666Z,14.93
2023-01-28T02:17:25.776Z,16.15
2023-01-28T02:17:58.828Z,17.65
2023-01-28T02:18:31.622Z,16.92
2023-01-28T02:19:03.712Z,17.80
2023-01-28T02:19:40.923Z,18.33
2023-01-28T02:20:15.775Z,17.52
2023-01-28T02:21:04.444Z,15.77
2023-01-28T02:22:15.847Z,15.65
2023-01-28T02:23:18.715Z,15.23
2023-01-28T02:24:07.762Z,17.27
2023-01-28T02:25:19.516Z,15.20
2023-01-28T02:26:20.478Z,15.98
2023-01-28T02:27:20.512Z,15.73
2023-01-28T02:28:09.622Z,17.05
2023-01-28T02:28:48.389Z,15.40
2023-01-28T02:29:26.813Z,15.57
2023-01-28T02:30:06.205Z,16.48
2023-01-28T02:30:42.573Z,15.27
2023-01-28T02:31:19.804Z,16.23
2023-01-28T02:31:56.012Z,16.58
2023-01-28T02:32:36.524Z,16.70
2023-01-28T02:33:14.252Z,14.50
2023-01-28T02:33:52.207Z,15.95
2023-01-28T02:34:31.801Z,16.13
2023-01-28T02:35:11.078Z,16.33
2023-01-28T02:35:48.131Z,15.35
2023-01-28T02:36:28.443Z,16.65
2023-01-28T02:37:04.071Z,16.42
2023-01-28T02:37:40.864Z,16.05
2023-01-28T02:38:18.185Z,15.55
2023-01-28T02:38:54.076Z,17.52
2023-01-28T02:39:31.061Z,15.95
2023-01-28T02:40:10.055Z,16.00
2023-01-28T02:40:59.827Z,17.08
2023-01-28T02:41:37.280Z,15.70
2023-01-28T02:42:13.502Z,15.85
2023-01-28T02:42:45.593Z,15.48
2023-01-28T02:43:19.724Z,16.77
2023-01-28T02:43:51.591Z,16.23
2023-01-28T02:44:23.994Z,16.73
2023-01-28T02:44:57.007Z,15.55
2023-01-28T02:45:52.007Z,16.58
2023-01-28T02:46:54.024Z,14.70
2023-01-28T02:47:44.483Z,18.13
2023-01-28T02:48:17.097Z,16.23
2023-01-28T02:48:48.982Z,15.63
2023-01-28T02:49:25.513Z,15.40
2023-01-28T02:49:59.507Z,17.20
2023-01-28T02:50:39.572Z,16.13
2023-01-28T02:51:22.861Z,15.45
2023-01-28T02:52:19.727Z,16.02
2023-01-28T02:53:27.788Z,15.10
2023-01-28T02:54:09.810Z,14.23
2023-01-28T02:54:52.028Z,15.73
2023-01-28T02:55:32.673Z,17.70
2023-01-28T02:56:17.479Z,16.55
2023-01-28T02:56:56.843Z,17.08
2023-01-28T02:57:37.532Z,14.73
2023-01-28T02:58:18.984Z,16.30
2023-01-28T02:58:59.486Z,15.43
2023-01-28T02:59:38.367Z,17.92
2023-01-28T03:00:17.263Z,15.50
2023-01-28T03:00:55.351Z,15.55
2023-01-28T03:01:34.027Z,16.30
2023-01-28T03:02:16.382Z,16.27
2023-01-28T03:02:54.367Z,16.00
2023-01-28T03:03:32.122Z,15.85
2023-01-28T03:04:09.170Z,16.45
2023-01-28T03:04:47.743Z,16.08
2023-01-28T03:05:27.368Z,17.20
2023-01-28T03:06:05.195Z,15.07
2023-01-28T03:06:41.983Z,15.30
2023-01-28T03:07:17.302Z,15.63
2023-01-28T03:07:50.078Z,15.82
2023-01-28T03:08:40.618Z,16.15
2023-01-28T03:09:23.035Z,16.92
2023-01-28T03:09:58.807Z,15.65
2023-01-28T03:10:31.938Z,15.38
2023-01-28T03:11:22.594Z,16.88
2023-01-28T03:12:16.554Z,16.10
2023-01-28T03:13:10.666Z,17.17
2023-01-28T03:14:02.773Z,16.08
2023-01-28T03:14:56.034Z,15.77
2023-01-28T03:15:52.830Z,16.10
2023-01-28T03:16:43.351Z,15.35
2023-01-28T03:17:37.828Z,17.38
2023-01-28T03:18:31.694Z,13.93
2023-01-28T03:19:22.141Z,15.70
2023-01-28T03:20:13.091Z,14.93
2023-01-28T03:21:09.248Z,14.77
2023-01-28T03:22:03.372Z,14.55
2023-01-28T03:22:57.926Z,14.43
2023-01-28T03:23:56.455Z,14.48
2023-01-28T03:24:50.954Z,15.02
2023-01-28T03:25:46.147Z,14.23
2023-01-28T03:26:41.583Z,14.70
2023-01-28T03:27:37.455Z,14.90
2023-01-28T03:28:31.783Z,14.82
2023-01-28T03:29:28.582Z,15.48
2023-01-28T03:30:27.658Z,14.68
2023-01-28T03:31:23.993Z,13.57
2023-01-28T03:32:16.447Z,19.67
2023-01-28T03:33:07.497Z,14.50
2023-01-28T03:33:59.178Z,17.45
2023-01-28T03:34:49.746Z,15.75
2023-01-28T03:35:42.745Z,15.48
2023-01-28T03:36:33.227Z,14.07
2023-01-28T03:37:06.082Z,13.55
2023-01-28T03:37:38.222Z,15.52
2023-01-28T03:38:20.974Z,14.93
2023-01-28T03:38:53.976Z,17.13
2023-01-28T03:39:28.281Z,15.35
2023-01-28T03:40:04.735Z,15.65
2023-01-28T03:40:37.522Z,16.65
2023-01-28T03:41:11.271Z,15.85
2023-01-28T03:41:43.784Z,15.77
2023-01-28T03:42:18.723Z,15.43
2023-01-28T03:42:52.200Z,17.13
2023-01-28T03:43:24.745Z,17.35
2023-01-28T03:43:58.237Z,17.13
2023-01-28T03:44:48.616Z,17.52
2023-01-28T03:45:21.814Z,17.35
2023-01-28T03:45:55.356Z,16.13
2023-01-28T03:46:28.175Z,15.80
2023-01-28T03:47:00.089Z,16.92
2023-01-28T03:47:32.539Z,16.50
2023-01-28T03:48:05.775Z,15.27
2023-01-28T03:48:37.606Z,17.02
2023-01-28T03:49:09.399Z,15.65
2023-01-28T03:49:42.618Z,16.42
2023-01-28T03:50:15.588Z,17.92
2023-01-28T03:50:48.145Z,18.05
2023-01-28T03:51:19.962Z,18.20
2023-01-28T03:51:52.744Z,16.42
2023-01-28T03:52:26.129Z,17.30
2023-01-28T03:53:13.528Z,16.27
2023-01-28T03:53:47.830Z,16.85
2023-01-28T03:54:19.764Z,18.10
2023-01-28T03:54:52.864Z,17.98
2023-01-28T03:55:25.945Z,16.92
2023-01-28T03:55:57.858Z,16.67
2023-01-28T03:56:32.454Z,17.50
2023-01-28T03:57:05.945Z,18.33
2023-01-28T03:57:37.792Z,16.40
2023-01-28T03:58:09.723Z,17.40
2023-01-28T03:58:54.961Z,15.90
2023-01-28T03:59:26.798Z,17.27
2023-01-28T03:59:58.595Z,16.50
2023-01-28T04:00:33.187Z,15.68
2023-01-28T04:01:05.128Z,18.33
2023-01-28T04:01:37.009Z,17.50
2023-01-28T04:02:11.513Z,16.38
2023-01-28T04:02:43.389Z,18.23
2023-01-28T04:03:17.838Z,18.92
2023-01-28T04:03:50.638Z,15.48
2023-01-28T04:04:25.232Z,16.88
2023-01-28T04:04:58.851Z,18.02
2023-01-28T04:05:31.744Z,16.90
2023-01-28T04:06:05.665Z,17.60
2023-01-28T04:06:37.673Z,15.45
2023-01-28T04:07:12.196Z,16.45
2023-01-28T04:07:44.228Z,17.50
2023-01-28T04:08:16.038Z,16.08
2023-01-28T04:08:52.900Z,18.42
2023-01-28T04:09:24.820Z,16.25
2023-01-28T04:09:56.728Z,16.70
2023-01-28T04:10:29.547Z,17.73
2023-01-28T04:11:15.395Z,16.38
2023-01-28T04:11:47.503Z,16.77
2023-01-28T04:12:20.274Z,16.63
2023-01-28T04:12:54.156Z,15.73
2023-01-28T04:13:26.067Z,16.08
2023-01-28T04:13:57.885Z,17.40
2023-01-28T04:14:30.829Z,16.02
2023-01-28T04:15:09.238Z,17.98
2023-01-28T04:15:43.141Z,17.08
2023-01-28T04:16:17.945Z,17.92
2023-01-28T04:16:50.016Z,18.45
2023-01-28T04:17:23.128Z,16.60
2023-01-28T04:17:54.973Z,16.55
2023-01-28T04:18:27.417Z,17.50
2023-01-28T04:18:59.606Z,18.80
2023-01-28T04:19:37.199Z,16.65
2023-01-28T04:20:10.680Z,16.45
2023-01-28T04:20:42.673Z,16.52
2023-01-28T04:21:15.562Z,17.17
2023-01-28T04:21:47.625Z,16.05
2023-01-28T04:22:19.398Z,16.85
2023-01-28T04:22:52.244Z,17.63
2023-01-28T04:23:24.185Z,17.30
2023-01-28T04:23:56.315Z,16.48
2023-01-28T04:24:29.412Z,18.30
2023-01-28T04:25:01.309Z,16.27
2023-01-28T04:25:33.441Z,13.88
2023-01-28T04:26:06.659Z,17.27
2023-01-28T04:26:38.813Z,16.83
2023-01-28T04:27:10.615Z,16.02
2023-01-28T04:27:43.419Z,16.17
2023-01-28T04:28:15.238Z,16.73
2023-01-28T04:28:47.119Z,16.58
2023-01-28T04:29:19.985Z,16.95
2023-01-28T04:29:51.810Z,17.00
2023-01-28T04:30:24.158Z,15.50
2023-01-28T04:30:58.431Z,15.70
2023-01-28T04:31:30.623Z,15.48
2023-01-28T04:32:02.450Z,14.73
2023-01-28T04:32:35.185Z,17.55
2023-01-28T04:33:07.049Z,17.17
2023-01-28T04:33:38.871Z,15.80
2023-01-28T04:34:11.687Z,15.52
2023-01-28T04:34:43.496Z,17.85
2023-01-28T04:35:15.719Z,16.35
2023-01-28T04:35:47.768Z,15.63
2023-01-28T04:36:20.561Z,15.75
2023-01-28T04:36:52.570Z,16.45
2023-01-28T04:37:25.388Z,17.25
2023-01-28T04:37:57.213Z,16.15
2023-01-28T04:38:29.042Z,16.77
2023-01-28T04:39:02.003Z,15.43
2023-01-28T04:39:33.838Z,16.10
2023-01-28T04:40:06.894Z,17.05
2023-01-28T04:40:39.666Z,16.80
2023-01-28T04:41:11.638Z,15.50
2023-01-28T04:41:43.504Z,15.65
2023-01-28T04:42:16.327Z,16.88
2023-01-28T04:42:53.798Z,16.20
2023-01-28T04:43:25.659Z,17.05
2023-01-28T04:43:58.492Z,16.58
2023-01-28T04:44:30.308Z,17.10
2023-01-28T04:45:02.192Z,16.58
2023-01-28T04:45:34.003Z,15.25
2023-01-28T04:46:08.613Z,16.05
2023-01-28T04:46:40.477Z,16.92
2023-01-28T04:47:13.344Z,18.13
2023-01-28T04:47:45.224Z,15.98
2023-01-28T04:48:17.543Z,16.73
2023-01-28T04:48:50.339Z,14.43
2023-01-28T04:49:22.247Z,17.20
2023-01-28T04:49:54.067Z,15.68
2023-01-28T04:50:27.999Z,15.30
2023-01-28T04:50:59.838Z,16.90
2023-01-28T04:51:32.674Z,17.30
2023-01-28T04:52:04.772Z,16.35
2023-01-28T04:52:36.595Z,18.63
2023-01-28T04:53:09.567Z,15.32
2023-01-28T04:53:41.359Z,16.42
2023-01-28T04:54:13.174Z,16.45
2023-01-28T04:54:46.392Z,16.42
2023-01-28T04:55:18.611Z,16.55
2023-01-28T04:55:50.584Z,18.20
2023-01-28T04:56:23.396Z,16.48
2023-01-28T04:56:56.207Z,15.93
2023-01-28T04:57:28.038Z,16.15
2023-01-28T04:57:59.972Z,16.85
2023-01-28T04:58:32.753Z,15.10
2023-01-28T04:59:04.764Z,17.35
2023-01-28T04:59:36.570Z,15.95
2023-01-28T05:00:09.436Z,16.70
2023-01-28T05:00:42.323Z,16.50
2023-01-28T05:01:15.614Z,16.75
2023-01-28T05:01:47.546Z,17.52
2023-01-28T05:02:20.422Z,16.52
2023-01-28T05:02:52.242Z,17.40
2023-01-28T05:03:24.512Z,17.67
2023-01-28T05:03:57.339Z,17.33
2023-01-28T05:04:29.196Z,18.00
2023-01-28T05:05:04.682Z,15.98
2023-01-28T05:05:37.502Z,16.50
2023-01-28T05:06:10.366Z,16.17
2023-01-28T05:06:42.171Z,16.10
2023-01-28T05:07:14.980Z,16.55
2023-01-28T05:07:51.631Z,15.95
2023-01-28T05:08:23.440Z,15.90
2023-01-28T05:08:56.250Z,15.98
2023-01-28T05:09:28.093Z,16.08
2023-01-28T05:09:59.884Z,15.73
2023-01-28T05:10:31.731Z,15.70
2023-01-28T05:11:04.651Z,16.42
2023-01-28T05:11:39.076Z,15.35
2023-01-28T05:12:11.137Z,14.90
2023-01-28T05:12:45.428Z,16.77
2023-01-28T05:13:17.268Z,15.57
2023-01-28T05:13:49.061Z,16.80
2023-01-28T05:14:21.827Z,15.80
2023-01-28T05:14:53.649Z,17.45
2023-01-28T05:15:25.517Z,16.88
2023-01-28T05:15:58.336Z,16.05
2023-01-28T05:16:31.979Z,16.85
2023-01-28T05:17:03.831Z,16.98
2023-01-28T05:17:36.730Z,15.98
2023-01-28T05:18:08.659Z,15.57
2023-01-28T05:18:40.516Z,16.88
2023-01-28T05:19:13.336Z,17.75
2023-01-28T05:19:46.251Z,16.95
2023-01-28T05:20:18.115Z,16.75
2023-01-28T05:20:50.912Z,15.93
2023-01-28T05:21:22.892Z,13.95
2023-01-28T05:21:54.789Z,16.75
2023-01-28T05:22:27.638Z,15.73
2023-01-28T05:22:59.498Z,15.07
2023-01-28T05:23:31.487Z,14.30
2023-01-28T05:24:04.708Z,17.08
2023-01-28T05:24:36.520Z,17.02
2023-01-28T05:25:09.563Z,15.95
2023-01-28T05:25:42.462Z,16.65
2023-01-28T05:26:14.245Z,15.27
2023-01-28T05:26:46.068Z,17.10
2023-01-28T05:27:19.030Z,17.77
2023-01-28T05:27:51.454Z,16.02
2023-01-28T05:28:24.381Z,16.33
2023-01-28T05:28:56.322Z,16.50
2023-01-28T05:29:28.135Z,17.05
2023-01-28T05:30:01.338Z,16.23
2023-01-28T05:30:33.179Z,16.48
2023-01-28T05:31:05.811Z,16.10
2023-01-28T05:31:40.003Z,15.15
2023-01-28T05:32:11.879Z,16.90
2023-01-28T05:32:43.790Z,16.75
2023-01-28T05:33:16.598Z,17.33
2023-01-28T05:33:48.470Z,14.65
2023-01-28T05:34:20.354Z,16.13
2023-01-28T05:34:53.134Z,15.80
2023-01-28T05:35:24.973Z,16.27
2023-01-28T05:35:56.810Z,16.13
2023-01-28T05:36:29.625Z,17.55
2023-01-28T05:37:01.464Z,15.80
2023-01-28T05:37:33.776Z,16.33
2023-01-28T05:38:06.710Z,16.50
2023-01-28T05:38:38.565Z,16.00
2023-01-28T05:39:10.441Z,16.58
2023-01-28T05:39:42.293Z,15.48
2023-01-28T05:40:15.703Z,15.60
2023-01-28T05:40:47.834Z,15.80
2023-01-28T05:41:19.666Z,16.02
2023-01-28T05:41:52.447Z,17.15
2023-01-28T05:42:24.337Z,16.55
2023-01-28T05:42:56.129Z,16.05
2023-01-28T05:43:29.651Z,15.65
2023-01-28T05:44:01.660Z,18.05
2023-01-28T05:44:33.473Z,15.85
2023-01-28T05:45:07.166Z,17.55
2023-01-28T05:45:39.129Z,16.23
2023-01-28T05:46:10.960Z,15.82
2023-01-28T05:46:46.602Z,16.23
2023-01-28T05:47:18.454Z,17.25
2023-01-28T05:47:50.327Z,16.75
2023-01-28T05:48:23.068Z,16.88
2023-01-28T05:48:55.011Z,16.73
2023-01-28T05:49:26.806Z,16.38
2023-01-28T05:50:00.206Z,14.45
2023-01-28T05:50:32.208Z,14.70
2023-01-28T05:51:05.128Z,16.75
2023-01-28T05:51:39.303Z,16.35
2023-01-28T05:52:11.090Z,18.20
2023-01-28T05:52:42.925Z,14.80
2023-01-28T05:53:15.785Z,17.00
2023-01-28T05:53:47.608Z,14.70
2023-01-28T05:54:19.475Z,15.57
2023-01-28T05:54:52.269Z,15.98
2023-01-28T05:55:24.291Z,17.58
2023-01-28T05:55:56.643Z,17.65
2023-01-28T05:56:29.478Z,15.38
2023-01-28T05:57:01.324Z,15.18
2023-01-28T05:57:33.113Z,15.60
2023-01-28T05:58:05.961Z,15.45
2023-01-28T05:58:37.800Z,16.05
2023-01-28T05:59:11.977Z,16.27
2023-01-28T05:59:43.849Z,16.80
2023-01-28T06:00:17.661Z,16.48
2023-01-28T06:00:49.788Z,15.65
2023-01-28T06:01:21.667Z,15.02
2023-01-28T06:01:55.738Z,15.32
2023-01-28T06:02:27.666Z,15.55
2023-01-28T06:02:59.571Z,15.73
2023-01-28T06:03:32.414Z,16.52
2023-01-28T06:04:04.609Z,13.90
2023-01-28T06:04:36.413Z,14.65
2023-01-28T06:05:10.451Z,14.50
2023-01-28T06:05:42.289Z,15.38
2023-01-28T06:06:14.117Z,16.08
2023-01-28T06:06:47.046Z,14.90
2023-01-28T06:07:20.452Z,15.35
2023-01-28T06:07:52.359Z,15.45
2023-01-28T06:08:25.139Z,14.93
2023-01-28T06:08:57.204Z,15.38
2023-01-28T06:09:29.004Z,17.70
2023-01-28T06:10:01.881Z,15.25
2023-01-28T06:10:33.952Z,14.85
2023-01-28T06:11:05.769Z,14.80
2023-01-28T06:11:38.508Z,14.95
2023-01-28T06:12:10.466Z,14.32
2023-01-28T06:12:42.768Z,15.32
2023-01-28T06:13:15.537Z,15.63
2023-01-28T06:13:47.345Z,16.70
2023-01-28T06:14:19.243Z,14.77
2023-01-28T06:14:52.112Z,15.00
2023-01-28T06:15:23.957Z,15.60
2023-01-28T06:15:55.779Z,15.40
2023-01-28T06:16:28.539Z,16.38
2023-01-28T06:17:01.698Z,15.95
2023-01-28T06:17:34.479Z,16.25
2023-01-28T06:18:06.551Z,15.35
2023-01-28T06:18:38.493Z,15.65
2023-01-28T06:19:11.289Z,16.35
2023-01-28T06:19:43.835Z,14.98
2023-01-28T06:20:17.520Z,15.18
2023-01-28T06:20:50.648Z,15.63
2023-01-28T06:21:22.510Z,15.60
2023-01-28T06:21:54.337Z,13.85
2023-01-28T06:22:27.108Z,16.40
2023-01-28T06:22:58.926Z,15.40
2023-01-28T06:23:30.755Z,15.48
2023-01-28T06:24:03.598Z,14.63
2023-01-28T06:24:35.501Z,14.75
2023-01-28T06:25:08.304Z,14.90
2023-01-28T06:25:41.074Z,15.95
2023-01-28T06:26:12.901Z,14.77
2023-01-28T06:26:44.679Z,15.00
2023-01-28T06:27:17.541Z,15.15
2023-01-28T06:27:49.385Z,14.93
2023-01-28T06:28:21.252Z,15.00
2023-01-28T06:28:54.183Z,15.95
2023-01-28T06:29:26.016Z,16.00
2023-01-28T06:29:57.880Z,15.25
2023-01-28T06:30:30.648Z,14.60
2023-01-28T06:31:02.639Z,15.90
2023-01-28T06:31:34.528Z,14.63
2023-01-28T06:32:08.761Z,16.38
2023-01-28T06:32:40.780Z,15.57
2023-01-28T06:33:12.639Z,17.65
2023-01-28T06:33:44.610Z,14.38
2023-01-28T06:34:17.466Z,16.33
2023-01-28T06:34:49.262Z,15.85
2023-01-28T06:35:21.648Z,15.38
2023-01-28T06:35:54.443Z,15.25
2023-01-28T06:36:26.314Z,16.38
2023-01-28T06:36:58.138Z,16.20
2023-01-28T06:37:30.971Z,15.32
2023-01-28T06:38:04.507Z,15.05
2023-01-28T06:38:36.480Z,16.58
2023-01-28T06:39:09.519Z,15.40
2023-01-28T06:39:41.499Z,16.70
2023-01-28T06:40:14.012Z,15.48
2023-01-28T06:40:52.518Z,16.63
2023-01-28T06:41:24.437Z,16.83
2023-01-28T06:41:56.254Z,16.08
2023-01-28T06:42:29.648Z,16.45
2023-01-28T06:43:01.486Z,17.08
2023-01-28T06:43:33.382Z,15.88
2023-01-28T06:44:06.630Z,16.00
2023-01-28T06:44:38.453Z,15.48
2023-01-28T06:45:11.175Z,15.15
2023-01-28T06:45:43.963Z,14.68
2023-01-28T06:46:15.851Z,16.50
2023-01-28T06:46:47.649Z,17.65
2023-01-28T06:47:21.846Z,15.75
2023-01-28T06:47:53.662Z,16.10
2023-01-28T06:48:26.418Z,16.48
2023-01-28T06:48:59.242Z,15.23
2023-01-28T06:49:31.049Z,16.45
2023-01-28T06:50:02.851Z,15.50
2023-01-28T06:50:35.768Z,14.73
2023-01-28T06:51:07.609Z,15.43
2023-01-28T06:51:40.396Z,15.52
2023-01-28T06:52:12.223Z,16.50
2023-01-28T06:52:44.061Z,16.58
2023-01-28T06:53:17.709Z,14.88
2023-01-28T06:53:49.538Z,15.32
2023-01-28T06:54:22.314Z,16.77
2023-01-28T06:54:54.162Z,17.30
2023-01-28T06:55:25.964Z,15.65
2023-01-28T06:55:58.721Z,16.85
2023-01-28T06:56:30.561Z,17.20
2023-01-28T06:57:02.615Z,16.27
2023-01-28T06:57:35.400Z,16.10
2023-01-28T06:58:07.282Z,16.27
2023-01-28T06:58:39.103Z,16.65
2023-01-28T06:59:11.965Z,17.70
2023-01-28T06:59:43.840Z,16.58
2023-01-28T07:00:16.998Z,15.40
2023-01-28T07:00:49.999Z,16.52
2023-01-28T07:01:21.862Z,16.50
2023-01-28T07:01:54.693Z,17.88
2023-01-28T07:02:27.911Z,15.63
2023-01-28T07:02:59.836Z,16.00
2023-01-28T07:03:32.594Z,16.85
2023-01-28T07:04:04.720Z,15.35
2023-01-28T07:04:37.237Z,24.88
2023-01-28T07:05:10.887Z,19.67
2023-01-28T07:05:42.695Z,18.20
2023-01-28T07:06:14.523Z,19.60
2023-01-28T07:06:47.262Z,23.90
2023-01-28T07:07:19.075Z,24.63
2023-01-28T07:07:51.517Z,19.88
2023-01-28T07:08:24.364Z,18.40
2023-01-28T07:08:56.212Z,17.33
2023-01-28T07:09:28.055Z,16.70
2023-01-28T07:10:00.843Z,17.02
2023-01-28T07:10:32.681Z,16.35
2023-01-28T07:11:04.838Z,16.02
2023-01-28T07:11:37.588Z,16.55
2023-01-28T07:12:09.386Z,15.93
2023-01-28T07:12:41.219Z,15.95
2023-01-28T07:13:14.137Z,15.57
2023-01-28T07:13:47.383Z,15.32
2023-01-28T07:14:19.234Z,16.55
2023-01-28T07:14:52.105Z,15.73
2023-01-28T07:15:23.981Z,14.90
2023-01-28T07:15:55.809Z,17.05
2023-01-28T07:16:28.566Z,15.32
2023-01-28T07:17:00.407Z,17.52
2023-01-28T07:17:33.631Z,15.98
2023-01-28T07:18:06.576Z,16.45
2023-01-28T07:18:38.419Z,16.05
2023-01-28T07:19:10.650Z,16.02
2023-01-28T07:19:43.472Z,15.50
2023-01-28T07:20:17.529Z,15.65
2023-01-28T07:20:49.531Z,17.35
2023-01-28T07:21:22.268Z,17.35
2023-01-28T07:21:57.676Z,16.67
2023-01-28T07:22:29.522Z,16.83
2023-01-28T07:23:02.273Z,16.90
2023-01-28T07:23:34.067Z,28.15
2023-01-28T07:24:06.330Z,38.70
2023-01-28T07:24:39.132Z,32.30
2023-01-28T07:25:12.290Z,28.25
2023-01-28T07:25:44.199Z,24.95
2023-01-28T07:26:17.073Z,21.90